Time;durP1;ratioP1;P1;durP2;ratioP2;P2;SDS_P1;SDS_P2;PMS_P1;PMS_P2;Temp;Humidity;BMP_temperature;BMP_pressure;BME280_temperature;BME280_humidity;BME280_pressure;Samples;Min_cycle;Max_cycle;Signal;HPM_P1;HPM_P2
2022/01/29 00:01:46;;;;;;;11.30;8.57;;;7.90;81.20;;;;;;922051;152;27400;-81
2022/01/29 00:04:16;;;;;;;10.57;8.80;;;7.90;81.10;;;;;;923445;152;27432;-80
2022/01/29 00:06:39;;;;;;;10.57;7.90;;;8.00;81.10;;;;;;920368;152;27541;-79
2022/01/29 00:09:07;;;;;;;9.20;7.37;;;8.00;81.10;;;;;;923996;152;27499;-80
2022/01/29 00:11:35;;;;;;;10.63;8.50;;;8.00;81.10;;;;;;922329;152;27354;-80
2022/01/29 00:13:59;;;;;;;13.60;8.03;;;8.10;81.10;;;;;;921974;152;27707;-81
2022/01/29 00:16:25;;;;;;;8.30;7.37;;;8.10;81.10;;;;;;923493;152;27382;-80
2022/01/29 00:18:52;;;;;;;9.13;7.57;;;8.10;81.10;;;;;;921299;152;27404;-79
2022/01/29 00:21:18;;;;;;;11.87;8.53;;;8.10;81.00;;;;;;925253;152;27963;-80
2022/01/29 00:23:45;;;;;;;9.43;7.77;;;8.10;80.90;;;;;;921907;152;27417;-79
2022/01/29 00:26:12;;;;;;;9.60;7.97;;;8.10;80.90;;;;;;923736;152;27339;-79
2022/01/29 00:28:38;;;;;;;9.90;7.23;;;8.20;81.00;;;;;;922468;152;27390;-79
2022/01/29 00:31:05;;;;;;;9.73;7.77;;;8.20;81.00;;;;;;919640;152;27822;-79
2022/01/29 00:33:31;;;;;;;11.43;9.20;;;8.20;81.00;;;;;;922261;152;27390;-79
2022/01/29 00:35:58;;;;;;;10.47;7.97;;;8.30;81.00;;;;;;921428;152;27481;-80
2022/01/29 00:38:24;;;;;;;11.27;8.17;;;8.30;80.80;;;;;;922939;152;27449;-80
2022/01/29 00:40:51;;;;;;;11.43;7.87;;;8.30;80.80;;;;;;922593;152;27303;-80
2022/01/29 00:43:18;;;;;;;9.73;8.03;;;8.30;80.70;;;;;;922267;152;27459;-79
2022/01/29 00:45:44;;;;;;;8.93;7.13;;;8.30;80.70;;;;;;915323;152;27409;-79
2022/01/29 00:48:11;;;;;;;11.23;7.90;;;8.30;80.70;;;;;;906435;155;27494;-79
2022/01/29 00:50:37;;;;;;;10.90;7.50;;;8.30;80.60;;;;;;907451;155;28779;-80
2022/01/29 00:53:04;;;;;;;11.50;8.17;;;8.30;80.50;;;;;;905058;155;27471;-80
2022/01/29 00:55:31;;;;;;;10.97;8.10;;;8.40;80.50;;;;;;907585;155;27430;-79
2022/01/29 00:57:57;;;;;;;10.63;7.27;;;8.40;80.60;;;;;;905376;155;27460;-81
2022/01/29 01:00:24;;;;;;;9.53;7.67;;;8.40;80.70;;;;;;906180;155;27419;-81
2022/01/29 01:02:50;;;;;;;10.60;7.93;;;8.40;80.60;;;;;;905877;155;27467;-80
2022/01/29 01:05:17;;;;;;;9.37;7.63;;;8.40;80.70;;;;;;905396;155;27338;-80
2022/01/29 01:07:43;;;;;;;10.23;7.33;;;8.40;80.60;;;;;;905774;155;27370;-80
2022/01/29 01:10:10;;;;;;;9.63;7.77;;;8.40;80.60;;;;;;908016;155;27349;-80
2022/01/29 01:12:37;;;;;;;8.17;7.20;;;8.40;80.50;;;;;;905726;155;27956;-81
2022/01/29 01:15:03;;;;;;;7.90;7.00;;;8.40;80.50;;;;;;904713;155;27431;-80
2022/01/29 01:17:30;;;;;;;8.50;6.70;;;8.40;80.50;;;;;;907707;155;27433;-80
2022/01/29 01:19:56;;;;;;;8.53;7.10;;;8.40;80.50;;;;;;908127;155;27342;-81
2022/01/29 01:22:23;;;;;;;9.37;6.83;;;8.40;80.50;;;;;;905591;155;27454;-80
2022/01/29 01:24:50;;;;;;;8.60;6.73;;;8.40;80.50;;;;;;906778;155;27436;-79
2022/01/29 01:27:16;;;;;;;10.73;7.93;;;8.40;80.70;;;;;;906232;155;27478;-80
2022/01/29 01:29:43;;;;;;;9.97;7.33;;;8.40;80.60;;;;;;906620;155;28192;-80
2022/01/29 01:32:12;;;;;;;9.43;7.20;;;8.40;80.70;;;;;;905503;155;27375;-81
2022/01/29 01:34:44;;;;;;;10.17;6.80;;;8.40;80.50;;;;;;906636;155;27407;-79
2022/01/29 01:37:10;;;;;;;9.57;8.33;;;8.40;80.50;;;;;;906374;155;27362;-80
2022/01/29 01:39:35;;;;;;;9.40;7.27;;;8.40;80.50;;;;;;904936;155;27389;-79
2022/01/29 01:42:04;;;;;;;9.97;7.07;;;8.40;80.50;;;;;;904478;155;27492;-79
2022/01/29 01:44:25;;;;;;;9.37;6.67;;;8.40;80.50;;;;;;907549;155;27439;-80
2022/01/29 01:46:52;;;;;;;10.33;7.00;;;8.40;80.50;;;;;;917250;152;27501;-79
2022/01/29 01:49:19;;;;;;;12.10;7.40;;;8.40;80.50;;;;;;922093;152;27399;-81
2022/01/29 01:51:45;;;;;;;11.33;7.13;;;8.40;80.50;;;;;;922916;152;27426;-80
2022/01/29 01:54:12;;;;;;;8.27;6.90;;;8.40;80.50;;;;;;922590;152;27904;-80
2022/01/29 01:56:38;;;;;;;8.83;6.47;;;8.30;80.50;;;;;;923396;152;27404;-79
2022/01/29 01:59:05;;;;;;;9.07;6.83;;;8.30;80.50;;;;;;922349;152;27320;-80
2022/01/29 02:01:31;;;;;;;8.63;6.67;;;8.30;80.50;;;;;;923171;152;27437;-79
2022/01/29 02:03:59;;;;;;;9.87;6.43;;;8.30;80.50;;;;;;922166;152;27363;-80
2022/01/29 02:06:25;;;;;;;12.30;7.23;;;8.30;80.50;;;;;;922676;152;27402;-79
2022/01/29 02:08:58;;;;;;;9.57;7.20;;;8.30;80.70;;;;;;922150;152;27379;-80
2022/01/29 02:11:18;;;;;;;9.90;7.27;;;8.30;80.60;;;;;;920742;152;28963;-80
2022/01/29 02:13:44;;;;;;;9.57;6.90;;;8.30;80.60;;;;;;923729;152;27385;-79
2022/01/29 02:16:11;;;;;;;11.17;7.40;;;8.30;81.30;;;;;;924765;152;27492;-78
2022/01/29 02:18:38;;;;;;;9.60;6.97;;;8.30;80.60;;;;;;925076;150;27429;-78
2022/01/29 02:21:04;;;;;;;7.50;6.17;;;8.30;80.70;;;;;;926060;150;27367;-79
2022/01/29 02:23:31;;;;;;;11.77;7.63;;;8.30;80.80;;;;;;922215;152;27406;-80
2022/01/29 02:25:57;;;;;;;12.03;7.07;;;8.20;80.80;;;;;;924111;152;27374;-80
2022/01/29 02:28:24;;;;;;;7.47;6.43;;;8.20;80.80;;;;;;923913;152;27484;-80
2022/01/29 02:30:50;;;;;;;8.27;6.83;;;8.20;80.90;;;;;;921804;152;27382;-80
2022/01/29 02:33:17;;;;;;;10.73;6.43;;;8.20;80.90;;;;;;920056;152;27431;-79
2022/01/29 02:35:44;;;;;;;9.40;6.60;;;8.20;80.90;;;;;;921266;152;27498;-82
2022/01/29 02:38:10;;;;;;;9.63;6.73;;;8.20;80.90;;;;;;921230;152;27534;-80
2022/01/29 02:40:45;;;;;;;8.10;6.27;;;8.20;81.00;;;;;;923960;152;27437;-80
2022/01/29 02:43:09;;;;;;;8.27;6.70;;;8.20;81.00;;;;;;924685;152;27449;-80
2022/01/29 02:45:36;;;;;;;7.90;6.33;;;8.20;81.10;;;;;;922403;152;27550;-79
2022/01/29 02:48:02;;;;;;;9.33;7.20;;;8.20;81.10;;;;;;920228;152;27512;-80
2022/01/29 02:50:29;;;;;;;7.33;6.33;;;8.20;81.10;;;;;;917752;152;28238;-81
2022/01/29 02:52:55;;;;;;;10.23;7.67;;;8.10;81.10;;;;;;920264;152;27460;-79
2022/01/29 02:55:24;;;;;;;8.73;6.63;;;8.10;81.10;;;;;;923639;152;27472;-80
2022/01/29 02:57:49;;;;;;;8.97;6.70;;;8.10;81.10;;;;;;920445;152;27411;-80
2022/01/29 03:00:15;;;;;;;10.37;7.30;;;8.10;81.10;;;;;;921062;152;27507;-82
2022/01/29 03:02:42;;;;;;;8.30;6.93;;;8.10;81.40;;;;;;920315;152;27392;-81
2022/01/29 03:05:08;;;;;;;7.13;6.33;;;8.10;81.30;;;;;;919375;152;27347;-80
2022/01/29 03:07:35;;;;;;;8.43;6.77;;;8.10;81.30;;;;;;920696;152;27321;-79
2022/01/29 03:10:01;;;;;;;9.67;7.10;;;8.10;81.40;;;;;;922069;152;27353;-79
2022/01/29 03:12:28;;;;;;;10.17;6.67;;;8.10;81.60;;;;;;920226;152;27417;-81
2022/01/29 03:14:55;;;;;;;7.60;6.43;;;8.10;81.60;;;;;;920081;152;27441;-80
2022/01/29 03:17:21;;;;;;;8.40;6.83;;;8.10;81.60;;;;;;918774;152;27375;-80
2022/01/29 03:19:48;;;;;;;9.33;7.00;;;8.10;81.60;;;;;;921854;152;27898;-77
2022/01/29 03:22:14;;;;;;;8.47;6.60;;;8.10;81.60;;;;;;921603;152;27355;-77
2022/01/29 03:24:41;;;;;;;9.63;6.17;;;8.10;81.60;;;;;;922018;152;27498;-77
2022/01/29 03:27:08;;;;;;;10.17;6.67;;;8.10;81.60;;;;;;921666;152;27391;-77
2022/01/29 03:29:34;;;;;;;8.33;6.40;;;8.10;81.70;;;;;;922541;152;28003;-77
2022/01/29 03:32:01;;;;;;;7.50;6.20;;;8.10;81.70;;;;;;921654;152;27392;-77
2022/01/29 03:34:27;;;;;;;7.90;6.37;;;8.10;81.70;;;;;;922082;152;27377;-76
2022/01/29 03:36:56;;;;;;;7.60;6.37;;;8.10;81.70;;;;;;920819;152;27375;-77
2022/01/29 03:39:21;;;;;;;7.20;6.30;;;8.20;81.70;;;;;;921802;152;27564;-81
2022/01/29 03:41:47;;;;;;;9.43;6.77;;;8.20;81.70;;;;;;922564;152;27411;-79
2022/01/29 03:44:14;;;;;;;9.37;6.73;;;8.20;81.80;;;;;;921909;152;27375;-80
2022/01/29 03:46:40;;;;;;;10.70;6.40;;;8.20;81.80;;;;;;921016;152;27334;-80
2022/01/29 03:49:07;;;;;;;8.60;6.83;;;8.20;81.80;;;;;;907582;155;27345;-80
2022/01/29 03:51:33;;;;;;;8.23;6.00;;;8.20;81.80;;;;;;907104;155;27879;-79
2022/01/29 03:54:00;;;;;;;8.93;7.03;;;8.20;81.90;;;;;;906893;155;27509;-80
2022/01/29 03:56:27;;;;;;;7.77;6.40;;;8.20;81.80;;;;;;903610;155;27337;-80
2022/01/29 03:58:53;;;;;;;8.40;6.57;;;8.20;81.70;;;;;;905330;155;27382;-80
2022/01/29 04:01:20;;;;;;;8.83;6.27;;;8.20;81.80;;;;;;905660;155;27941;-80
2022/01/29 04:03:46;;;;;;;8.43;6.37;;;8.20;81.70;;;;;;906263;155;27413;-80
2022/01/29 04:06:13;;;;;;;8.80;6.53;;;8.20;81.70;;;;;;906682;155;27425;-79
2022/01/29 04:08:41;;;;;;;7.33;6.63;;;8.20;81.70;;;;;;905266;155;27386;-81
2022/01/29 04:11:10;;;;;;;9.47;7.13;;;8.20;81.70;;;;;;906772;155;27432;-80
2022/01/29 04:13:37;;;;;;;9.60;7.13;;;8.20;81.60;;;;;;907512;155;27387;-80
2022/01/29 04:16:02;;;;;;;8.53;7.33;;;8.20;81.60;;;;;;905779;155;27448;-79
2022/01/29 04:18:28;;;;;;;8.30;6.73;;;8.20;81.60;;;;;;906399;155;27427;-81
2022/01/29 04:20:55;;;;;;;8.83;7.27;;;8.20;81.70;;;;;;906402;155;27299;-79
2022/01/29 04:23:22;;;;;;;9.90;7.27;;;8.20;81.60;;;;;;907475;155;27399;-80
2022/01/29 04:25:52;;;;;;;9.23;7.40;;;8.20;81.60;;;;;;908335;155;27434;-80
2022/01/29 04:28:15;;;;;;;11.00;7.50;;;8.20;81.70;;;;;;906685;155;27389;-79
2022/01/29 04:30:46;;;;;;;10.03;7.60;;;8.20;81.70;;;;;;906787;155;27421;-81
2022/01/29 04:35:49;;;;;;;8.30;6.27;;;8.10;81.70;;;;;;905103;155;27443;-80
2022/01/29 04:38:16;;;;;;;9.70;7.13;;;8.10;81.70;;;;;;907902;155;27330;-79
2022/01/29 04:40:42;;;;;;;9.37;6.93;;;8.10;81.90;;;;;;905697;155;27945;-79
2022/01/29 04:43:09;;;;;;;10.40;7.53;;;8.10;81.90;;;;;;907361;155;27411;-79
2022/01/29 04:45:36;;;;;;;9.43;7.37;;;8.10;81.90;;;;;;907820;155;27483;-81
2022/01/29 04:48:02;;;;;;;9.10;7.10;;;8.10;81.90;;;;;;905460;154;27390;-80
2022/01/29 04:50:29;;;;;;;10.50;7.40;;;8.10;81.90;;;;;;908498;155;27374;-79
2022/01/29 04:52:55;;;;;;;9.93;6.93;;;8.10;81.90;;;;;;905980;155;27470;-80
2022/01/29 04:55:22;;;;;;;8.83;6.90;;;8.10;81.90;;;;;;905992;155;27463;-79
2022/01/29 04:57:48;;;;;;;9.57;7.10;;;8.10;82.10;;;;;;907656;155;27961;-80
2022/01/29 05:00:21;;;;;;;7.90;6.57;;;8.10;82.10;;;;;;909405;155;27470;-80
2022/01/29 05:02:44;;;;;;;9.60;7.63;;;8.10;82.10;;;;;;907999;155;27682;-80
2022/01/29 05:05:11;;;;;;;8.90;7.53;;;8.10;82.10;;;;;;907108;155;27436;-79
2022/01/29 05:07:38;;;;;;;11.53;7.87;;;8.10;82.10;;;;;;904544;155;27396;-80
2022/01/29 05:10:04;;;;;;;8.03;6.70;;;8.10;82.10;;;;;;908311;155;27512;-80
2022/01/29 05:12:42;;;;;;;9.27;7.37;;;8.10;82.20;;;;;;907126;155;27482;-80
2022/01/29 05:28:07;;;;;;;8.90;6.80;;;8.10;82.20;;;;;;907764;155;27386;-80
2022/01/29 05:30:34;;;;;;;8.87;6.70;;;8.00;82.20;;;;;;905563;155;27507;-79
2022/01/29 05:33:00;;;;;;;9.70;6.73;;;8.10;82.40;;;;;;904417;155;27453;-79
2022/01/29 05:35:27;;;;;;;8.97;6.33;;;8.00;82.40;;;;;;907452;155;27404;-79
2022/01/29 05:37:55;;;;;;;9.63;7.23;;;8.00;82.40;;;;;;906204;155;28108;-80
2022/01/29 05:40:20;;;;;;;8.20;6.90;;;8.00;82.40;;;;;;907183;155;27461;-79
2022/01/29 05:42:47;;;;;;;8.50;6.17;;;8.00;82.50;;;;;;905027;155;27450;-80
2022/01/29 05:45:13;;;;;;;9.03;7.00;;;8.00;82.50;;;;;;905629;155;27338;-78
2022/01/29 05:47:40;;;;;;;10.13;7.30;;;8.00;82.50;;;;;;906013;155;27393;-79
2022/01/29 05:50:07;;;;;;;9.37;6.83;;;8.10;82.70;;;;;;918524;152;27426;-80
2022/01/29 05:52:33;;;;;;;9.83;7.30;;;8.10;82.70;;;;;;921650;152;28495;-80
2022/01/29 05:55:00;;;;;;;8.50;6.80;;;8.00;82.60;;;;;;920724;152;27373;-80
2022/01/29 05:57:26;;;;;;;7.93;6.63;;;8.00;82.70;;;;;;920007;152;27352;-80
2022/01/29 05:59:53;;;;;;;9.17;7.10;;;8.00;82.70;;;;;;922676;152;27480;-79
2022/01/29 06:02:20;;;;;;;8.20;6.83;;;8.00;82.90;;;;;;922303;152;27416;-79
2022/01/29 06:04:46;;;;;;;8.07;6.93;;;8.00;83.60;;;;;;922845;152;27393;-79
2022/01/29 06:07:13;;;;;;;7.47;6.50;;;8.00;82.90;;;;;;920722;152;27494;-80
2022/01/29 06:09:39;;;;;;;8.53;6.67;;;7.90;82.80;;;;;;920017;152;27304;-79
2022/01/29 06:12:06;;;;;;;7.00;6.27;;;8.00;83.00;;;;;;920242;152;27382;-79
2022/01/29 06:14:33;;;;;;;10.27;7.13;;;8.00;83.10;;;;;;921202;152;27980;-79
2022/01/29 06:16:59;;;;;;;8.77;6.70;;;8.00;83.40;;;;;;921455;152;27408;-80
2022/01/29 06:19:26;;;;;;;10.37;7.13;;;8.00;83.20;;;;;;920014;152;27424;-79
2022/01/29 06:21:52;;;;;;;8.77;6.90;;;8.00;83.20;;;;;;919529;152;27373;-80
2022/01/29 06:24:19;;;;;;;8.00;6.37;;;8.00;83.30;;;;;;922214;152;27469;-79
2022/01/29 06:26:45;;;;;;;10.87;8.00;;;7.90;83.20;;;;;;922727;152;27391;-79
2022/01/29 06:29:12;;;;;;;7.70;6.27;;;7.90;83.30;;;;;;920413;152;27419;-79
2022/01/29 06:31:39;;;;;;;7.73;6.13;;;7.90;83.30;;;;;;920191;152;27460;-79
2022/01/29 06:34:05;;;;;;;9.33;6.80;;;7.90;83.30;;;;;;920157;152;27368;-80
2022/01/29 06:36:32;;;;;;;7.97;6.80;;;7.90;83.60;;;;;;920790;152;27393;-80
2022/01/29 06:38:58;;;;;;;6.90;5.93;;;7.90;83.70;;;;;;919833;152;27420;-79
2022/01/29 06:41:25;;;;;;;8.80;7.23;;;7.90;83.70;;;;;;920102;152;27510;-80
2022/01/29 06:43:52;;;;;;;10.40;6.60;;;7.80;83.70;;;;;;917754;152;29297;-81
2022/01/29 06:46:18;;;;;;;6.97;6.20;;;7.90;82.90;;;;;;920538;152;27524;-80
2022/01/29 06:48:45;;;;;;;8.07;6.63;;;7.90;83.80;;;;;;921011;152;27401;-79
2022/01/29 06:51:11;;;;;;;7.30;6.47;;;7.90;83.90;;;;;;922185;152;27366;-79
2022/01/29 06:53:38;;;;;;;8.73;5.97;;;7.90;83.90;;;;;;922437;152;27419;-80
2022/01/29 06:56:05;;;;;;;7.90;6.33;;;7.90;84.10;;;;;;923559;152;27386;-80
2022/01/29 06:58:31;;;;;;;10.50;6.73;;;7.90;83.90;;;;;;903236;155;27308;-80
2022/01/29 07:00:58;;;;;;;8.47;6.93;;;7.90;84.00;;;;;;921843;152;27353;-80
2022/01/29 07:03:24;;;;;;;8.93;6.47;;;7.90;84.10;;;;;;919648;152;27493;-79
2022/01/29 07:05:51;;;;;;;8.93;6.80;;;7.80;84.00;;;;;;921473;152;27464;-79
2022/01/29 07:08:17;;;;;;;11.40;7.43;;;7.80;84.20;;;;;;920400;152;27375;-79
2022/01/29 07:10:45;;;;;;;9.33;6.57;;;7.80;84.10;;;;;;917880;152;27391;-79
2022/01/29 07:13:11;;;;;;;8.53;6.10;;;7.80;84.20;;;;;;919964;152;27366;-80
2022/01/29 07:15:37;;;;;;;9.70;6.97;;;7.80;84.60;;;;;;920805;152;27364;-80
2022/01/29 07:18:04;;;;;;;9.30;7.37;;;7.80;84.60;;;;;;920373;152;27751;-79
2022/01/29 07:20:30;;;;;;;8.00;6.57;;;7.80;84.70;;;;;;919793;152;27396;-80
2022/01/29 07:22:57;;;;;;;9.60;6.93;;;7.80;84.80;;;;;;919020;152;27375;-79
2022/01/29 07:25:25;;;;;;;7.97;6.57;;;7.80;84.70;;;;;;919910;152;27404;-80
2022/01/29 07:27:50;;;;;;;8.37;7.07;;;7.80;84.70;;;;;;918153;152;27463;-78
2022/01/29 07:30:17;;;;;;;10.40;7.30;;;7.80;84.80;;;;;;919853;152;27351;-78
2022/01/29 07:32:43;;;;;;;9.27;7.07;;;7.80;85.00;;;;;;920363;152;27424;-78
2022/01/29 07:35:10;;;;;;;8.90;7.30;;;7.80;85.30;;;;;;918617;152;27915;-78
2022/01/29 07:37:36;;;;;;;8.63;6.67;;;7.80;85.10;;;;;;919122;152;27378;-79
2022/01/29 07:40:03;;;;;;;8.57;6.63;;;7.80;85.10;;;;;;919256;152;27383;-78
2022/01/29 07:42:30;;;;;;;8.63;6.50;;;7.80;85.40;;;;;;919937;152;27450;-78
2022/01/29 07:44:56;;;;;;;8.23;6.60;;;7.80;85.70;;;;;;920685;152;27490;-78
2022/01/29 07:47:23;;;;;;;9.80;7.67;;;7.80;85.50;;;;;;921440;152;27411;-78
2022/01/29 07:49:49;;;;;;;8.60;7.20;;;7.80;85.50;;;;;;920560;152;27489;-78
2022/01/29 07:52:16;;;;;;;9.17;6.67;;;7.80;85.80;;;;;;919177;152;27378;-78
2022/01/29 07:54:43;;;;;;;9.10;6.50;;;7.80;85.90;;;;;;920391;152;27352;-78
2022/01/29 07:57:09;;;;;;;7.60;6.10;;;7.80;86.00;;;;;;919930;152;27378;-78
2022/01/29 07:59:36;;;;;;;9.37;7.07;;;7.80;86.00;;;;;;919862;152;27425;-78
2022/01/29 08:02:02;;;;;;;9.33;6.70;;;7.80;86.10;;;;;;919388;152;27394;-78
2022/01/29 08:04:29;;;;;;;7.93;6.33;;;7.80;86.30;;;;;;922442;152;27469;-77
2022/01/29 08:06:55;;;;;;;9.10;6.60;;;7.80;86.40;;;;;;919954;152;27363;-78
2022/01/29 08:09:22;;;;;;;7.90;6.23;;;7.80;86.40;;;;;;920127;152;27367;-78
2022/01/29 08:11:49;;;;;;;7.93;6.33;;;7.80;86.60;;;;;;918608;152;27389;-78
2022/01/29 08:14:15;;;;;;;8.87;6.70;;;7.80;86.70;;;;;;918831;152;27424;-78
2022/01/29 08:16:42;;;;;;;10.30;6.73;;;7.80;86.90;;;;;;920206;152;27412;-78
2022/01/29 08:19:08;;;;;;;7.47;5.80;;;7.80;86.90;;;;;;920380;152;27364;-78
2022/01/29 08:21:38;;;;;;;8.23;5.67;;;7.80;86.80;;;;;;920552;152;27390;-78
2022/01/29 08:24:02;;;;;;;7.27;6.23;;;7.80;86.80;;;;;;919913;152;27438;-78
2022/01/29 08:26:28;;;;;;;9.67;6.60;;;7.80;86.60;;;;;;919815;152;27793;-78
2022/01/29 08:28:55;;;;;;;7.20;6.13;;;7.80;86.80;;;;;;920373;152;27388;-78
2022/01/29 08:31:21;;;;;;;7.90;6.53;;;7.80;86.80;;;;;;918365;152;27340;-78
2022/01/29 08:33:48;;;;;;;8.10;6.43;;;7.80;87.00;;;;;;918045;152;28046;-78
2022/01/29 08:36:14;;;;;;;7.43;6.03;;;7.80;87.10;;;;;;920018;152;27453;-77
2022/01/29 08:38:41;;;;;;;7.07;5.87;;;7.80;87.10;;;;;;917582;152;27498;-77
2022/01/29 08:41:08;;;;;;;7.77;6.57;;;7.80;87.10;;;;;;918704;152;28413;-77
2022/01/29 08:43:34;;;;;;;7.47;6.30;;;7.80;87.00;;;;;;916455;152;27308;-77
2022/01/29 08:46:01;;;;;;;7.93;6.33;;;7.90;86.90;;;;;;917808;152;27521;-76
2022/01/29 08:48:27;;;;;;;6.83;5.47;;;7.90;86.80;;;;;;919085;152;27388;-77
2022/01/29 08:50:54;;;;;;;8.20;6.23;;;7.90;86.90;;;;;;915856;152;27454;-77
2022/01/29 08:53:21;;;;;;;6.70;5.37;;;7.90;87.50;;;;;;909084;154;27907;-78
2022/01/29 08:55:47;;;;;;;7.03;5.77;;;8.00;86.80;;;;;;909313;154;27402;-78
2022/01/29 08:58:14;;;;;;;6.67;5.57;;;8.00;86.60;;;;;;908819;154;27502;-78
2022/01/29 09:00:40;;;;;;;9.83;6.37;;;8.10;86.50;;;;;;909069;154;28239;-78
2022/01/29 09:03:07;;;;;;;11.67;7.20;;;8.10;86.40;;;;;;908530;154;27959;-79
2022/01/29 09:05:34;;;;;;;7.80;6.27;;;8.10;86.30;;;;;;909977;154;27498;-78
2022/01/29 09:08:00;;;;;;;6.57;5.50;;;8.10;86.10;;;;;;909058;154;27399;-78
2022/01/29 09:10:27;;;;;;;8.37;5.07;;;8.10;86.00;;;;;;910662;154;27357;-78
2022/01/29 09:12:53;;;;;;;8.37;5.63;;;8.20;86.10;;;;;;911373;154;27769;-78
2022/01/29 09:15:20;;;;;;;7.17;4.90;;;8.20;86.00;;;;;;909000;154;27494;-78
2022/01/29 09:17:46;;;;;;;5.97;5.20;;;8.20;86.00;;;;;;909128;154;27481;-78
2022/01/29 09:20:13;;;;;;;5.50;4.90;;;8.30;85.90;;;;;;909863;154;28084;-78
2022/01/29 09:22:40;;;;;;;7.13;5.50;;;8.30;85.80;;;;;;910547;154;27405;-79
2022/01/29 09:25:06;;;;;;;5.93;4.63;;;8.30;86.20;;;;;;909436;154;27345;-78
2022/01/29 09:27:33;;;;;;;5.07;4.57;;;8.30;85.40;;;;;;911791;154;27324;-78
2022/01/29 09:29:59;;;;;;;5.97;5.37;;;8.30;85.30;;;;;;912063;154;27460;-78
2022/01/29 09:32:26;;;;;;;7.20;4.90;;;8.30;85.20;;;;;;909911;154;28010;-78
2022/01/29 09:34:53;;;;;;;5.07;4.30;;;8.30;85.10;;;;;;910080;154;27369;-79
2022/01/29 09:37:19;;;;;;;5.73;4.80;;;8.40;85.10;;;;;;908285;154;27380;-78
2022/01/29 09:39:46;;;;;;;5.60;4.13;;;8.40;85.10;;;;;;909742;154;27320;-79
2022/01/29 09:42:12;;;;;;;4.97;4.27;;;8.40;85.10;;;;;;909976;154;27416;-78
2022/01/29 09:44:39;;;;;;;6.83;4.93;;;8.40;85.00;;;;;;910635;154;27400;-78
2022/01/29 09:47:06;;;;;;;5.47;4.83;;;8.40;84.90;;;;;;911593;154;27406;-78
2022/01/29 09:49:32;;;;;;;6.17;5.07;;;8.40;84.90;;;;;;909586;154;27363;-78
2022/01/29 09:51:59;;;;;;;6.00;4.70;;;8.40;84.90;;;;;;915671;152;27506;-78
2022/01/29 09:54:25;;;;;;;5.97;4.20;;;8.40;84.90;;;;;;923122;152;27339;-79
2022/01/29 09:56:52;;;;;;;5.63;4.80;;;8.50;84.90;;;;;;922310;152;27498;-78
2022/01/29 09:59:18;;;;;;;4.30;3.90;;;8.50;84.80;;;;;;922414;152;27332;-79
2022/01/29 10:01:45;;;;;;;5.40;4.07;;;8.50;84.90;;;;;;922433;152;27983;-79
2022/01/29 10:04:12;;;;;;;4.80;4.13;;;8.50;84.90;;;;;;921152;152;27734;-78
2022/01/29 10:06:42;;;;;;;4.10;3.70;;;8.50;84.80;;;;;;921351;152;27385;-78
2022/01/29 10:09:06;;;;;;;4.67;3.73;;;8.60;84.80;;;;;;923890;152;27502;-79
2022/01/29 10:11:31;;;;;;;4.30;3.50;;;8.60;84.70;;;;;;923446;152;27932;-79
2022/01/29 10:13:58;;;;;;;4.00;3.30;;;8.60;84.60;;;;;;924648;152;27370;-79
2022/01/29 10:16:25;;;;;;;5.10;3.93;;;8.60;84.60;;;;;;903250;155;27506;-78
2022/01/29 10:19:03;;;;;;;4.17;3.77;;;8.60;84.60;;;;;;924459;152;28050;-79
2022/01/29 10:21:30;;;;;;;4.10;3.50;;;8.60;84.60;;;;;;923411;152;27474;-78
2022/01/29 10:24:12;;;;;;;3.60;3.27;;;8.60;84.70;;;;;;922034;152;27493;-79
2022/01/29 10:26:38;;;;;;;4.20;3.70;;;8.70;84.60;;;;;;922153;152;27383;-79
2022/01/29 10:29:06;;;;;;;6.13;3.60;;;8.70;84.60;;;;;;922943;152;27302;-79
2022/01/29 10:31:34;;;;;;;4.03;3.20;;;8.70;84.60;;;;;;920728;152;27355;-76
2022/01/29 10:34:01;;;;;;;3.77;3.13;;;8.70;84.60;;;;;;920163;152;27320;-78
2022/01/29 10:36:28;;;;;;;3.17;2.87;;;8.70;84.70;;;;;;924021;152;27408;-79
2022/01/29 10:38:55;;;;;;;4.57;3.20;;;8.70;84.80;;;;;;920958;152;27506;-79
2022/01/29 10:41:31;;;;;;;3.87;3.40;;;8.80;84.90;;;;;;922605;152;27417;-79
2022/01/29 10:44:16;;;;;;;3.40;3.10;;;8.80;84.80;;;;;;923594;152;27864;-80
2022/01/29 10:46:44;;;;;;;2.87;2.50;;;8.80;84.80;;;;;;922077;152;27311;-79
2022/01/29 10:49:23;;;;;;;3.60;3.10;;;8.80;84.90;;;;;;924159;152;27323;-79
2022/01/29 10:52:07;;;;;;;2.60;2.40;;;8.90;85.00;;;;;;920810;152;27436;-80
2022/01/29 10:54:34;;;;;;;2.63;2.33;;;8.90;85.00;;;;;;907845;155;28907;-79
2022/01/29 10:57:06;;;;;;;2.10;2.00;;;9.00;85.00;;;;;;907103;155;27723;-79
2022/01/29 10:59:33;;;;;;;2.33;2.13;;;9.00;84.90;;;;;;905104;155;27369;-80
2022/01/29 11:02:02;;;;;;;2.20;2.00;;;9.10;85.00;;;;;;906690;155;27375;-79
2022/01/29 11:04:29;;;;;;;1.70;1.60;;;9.10;84.80;;;;;;905917;155;27420;-79
2022/01/29 11:06:57;;;;;;;2.90;2.03;;;9.20;84.70;;;;;;905644;155;27798;-79
2022/01/29 11:09:22;;;;;;;1.90;1.80;;;9.20;84.60;;;;;;907640;155;27815;-80
2022/01/29 11:11:49;;;;;;;1.67;1.57;;;9.20;84.60;;;;;;906196;155;27399;-80
2022/01/29 11:14:18;;;;;;;2.03;1.77;;;9.30;84.60;;;;;;906975;155;27375;-79
2022/01/29 11:16:44;;;;;;;2.50;2.30;;;9.30;84.60;;;;;;906639;155;27381;-80
2022/01/29 11:19:11;;;;;;;2.57;2.20;;;9.30;84.50;;;;;;907171;155;27459;-80
2022/01/29 11:21:38;;;;;;;4.10;2.43;;;9.40;84.50;;;;;;906095;155;27369;-79
2022/01/29 11:24:09;;;;;;;1.53;1.43;;;9.40;84.40;;;;;;907400;155;27449;-79
2022/01/29 11:26:34;;;;;;;1.60;1.50;;;9.40;84.50;;;;;;906141;155;27357;-79
2022/01/29 11:29:22;;;;;;;4.23;3.00;;;9.50;84.30;;;;;;906724;155;27487;-79
2022/01/29 11:31:48;;;;;;;2.30;2.10;;;9.50;84.30;;;;;;906585;155;27475;-80
2022/01/29 11:34:15;;;;;;;1.67;1.57;;;9.50;84.20;;;;;;904067;155;27467;-79
2022/01/29 11:36:47;;;;;;;1.70;1.60;;;9.60;84.10;;;;;;905187;155;27369;-79
2022/01/29 11:39:23;;;;;;;1.50;1.40;;;9.60;84.00;;;;;;907144;155;27508;-79
2022/01/29 11:42:11;;;;;;;2.37;1.27;;;9.70;84.00;;;;;;904528;155;28067;-80
2022/01/29 11:44:37;;;;;;;1.30;1.30;;;9.70;83.90;;;;;;906251;155;27501;-79
2022/01/29 11:47:23;;;;;;;1.30;1.30;;;9.70;83.80;;;;;;907154;155;27495;-80
2022/01/29 11:49:49;;;;;;;1.50;1.40;;;9.80;83.90;;;;;;906781;155;27386;-79
2022/01/29 11:52:24;;;;;;;1.57;1.47;;;9.80;83.70;;;;;;906844;152;27461;-80
2022/01/29 11:54:57;;;;;;;1.90;1.50;;;9.90;83.80;;;;;;922529;152;27352;-80
2022/01/29 11:57:24;;;;;;;2.03;1.83;;;9.90;83.80;;;;;;922242;152;27500;-79
2022/01/29 11:59:50;;;;;;;1.70;1.60;;;10.00;83.70;;;;;;920710;152;27394;-79
2022/01/29 12:02:17;;;;;;;1.53;1.33;;;10.00;83.50;;;;;;919670;152;27411;-79
2022/01/29 12:04:55;;;;;;;1.73;1.60;;;10.10;83.30;;;;;;923255;152;27331;-79
2022/01/29 12:07:25;;;;;;;1.63;1.53;;;10.10;83.20;;;;;;921417;152;27352;-79
2022/01/29 12:09:47;;;;;;;1.60;1.50;;;10.10;82.90;;;;;;924003;152;27988;-79
2022/01/29 12:12:22;;;;;;;1.90;1.80;;;10.20;82.80;;;;;;921761;152;27912;-79
2022/01/29 12:14:51;;;;;;;1.80;1.60;;;10.20;82.50;;;;;;922879;152;27516;-79
2022/01/29 12:17:35;;;;;;;2.70;1.70;;;10.20;82.50;;;;;;922466;152;27462;-79
2022/01/29 12:20:02;;;;;;;2.17;1.57;;;10.20;82.50;;;;;;922799;152;27397;-79
2022/01/29 12:22:29;;;;;;;2.17;1.97;;;10.30;82.60;;;;;;922122;152;27392;-78
2022/01/29 12:24:55;;;;;;;1.80;1.70;;;10.30;82.60;;;;;;921632;152;27393;-79
2022/01/29 12:27:22;;;;;;;1.77;1.67;;;10.30;82.50;;;;;;923854;152;27496;-79
2022/01/29 12:29:48;;;;;;;1.80;1.70;;;10.30;82.10;;;;;;920897;152;28856;-79
2022/01/29 12:32:15;;;;;;;1.87;1.77;;;10.40;82.00;;;;;;921904;152;27403;-79
2022/01/29 12:34:42;;;;;;;2.00;1.83;;;10.40;81.80;;;;;;920946;152;27381;-78
2022/01/29 12:37:14;;;;;;;2.10;1.90;;;10.30;81.60;;;;;;922967;152;27335;-79
2022/01/29 12:39:40;;;;;;;1.90;1.80;;;10.30;81.60;;;;;;920416;152;27362;-78
2022/01/29 12:44:42;;;;;;;2.07;1.97;;;10.20;81.70;;;;;;922044;152;27406;-79
2022/01/29 12:47:09;;;;;;;2.70;2.00;;;10.20;81.70;;;;;;920418;152;27486;-79
2022/01/29 12:49:41;;;;;;;1.83;1.73;;;10.20;81.70;;;;;;923205;152;27387;-79
2022/01/29 12:52:11;;;;;;;2.27;2.07;;;10.10;81.80;;;;;;923284;152;27463;-79
2022/01/29 12:54:37;;;;;;;2.33;2.13;;;10.10;81.90;;;;;;910757;154;27410;-79
2022/01/29 12:57:04;;;;;;;2.50;2.30;;;10.00;81.90;;;;;;906395;155;27465;-79
2022/01/29 12:59:30;;;;;;;2.43;2.23;;;10.00;81.80;;;;;;906023;155;27507;-79
2022/01/29 13:01:57;;;;;;;2.63;2.40;;;9.90;82.00;;;;;;904306;155;27498;-79
2022/01/29 13:04:24;;;;;;;2.67;2.30;;;9.90;82.00;;;;;;906051;155;27916;-80
2022/01/29 13:07:02;;;;;;;2.90;2.60;;;9.80;81.40;;;;;;903610;155;27409;-79
2022/01/29 13:09:29;;;;;;;2.90;2.60;;;9.80;82.40;;;;;;906183;155;27946;-79
2022/01/29 13:11:55;;;;;;;2.87;2.57;;;9.70;82.60;;;;;;904747;155;27756;-78
2022/01/29 13:14:22;;;;;;;3.13;2.87;;;9.70;82.80;;;;;;906353;155;27421;-79